sensor_id;sensor_type;location;lat;lon;timestamp;temperature;humidity
28761;DHT22;15917;50.014;8.352;2022-11-20T00:02:16;4.00;99.90
28761;DHT22;15917;50.014;8.352;2022-11-20T00:04:41;4.00;99.90
28761;DHT22;15917;50.014;8.352;2022-11-20T00:07:07;4.00;99.90
28761;DHT22;15917;50.014;8.352;2022-11-20T00:09:32;4.00;99.90
28761;DHT22;15917;50.014;8.352;2022-11-20T00:11:58;3.90;99.90
28761;DHT22;15917;50.014;8.352;2022-11-20T00:14:23;3.90;99.90
28761;DHT22;15917;50.014;8.352;2022-11-20T00:16:49;3.80;99.90
28761;DHT22;15917;50.014;8.352;2022-11-20T00:19:15;3.80;99.90
28761;DHT22;15917;50.014;8.352;2022-11-20T00:21:40;3.70;99.90
28761;DHT22;15917;50.014;8.352;2022-11-20T00:24:08;3.70;99.90
28761;DHT22;15917;50.014;8.352;2022-11-20T00:26:36;3.70;99.90
28761;DHT22;15917;50.014;8.352;2022-11-20T00:29:02;3.70;99.90
28761;DHT22;15917;50.014;8.352;2022-11-20T00:31:29;3.70;99.90
28761;DHT22;15917;50.014;8.352;2022-11-20T00:33:55;3.70;99.90
28761;DHT22;15917;50.014;8.352;2022-11-20T00:36:23;3.60;99.90
28761;DHT22;15917;50.014;8.352;2022-11-20T00:38:52;3.60;99.90
28761;DHT22;15917;50.014;8.352;2022-11-20T00:41:18;3.60;99.90
28761;DHT22;15917;50.014;8.352;2022-11-20T00:43:43;3.60;99.90
28761;DHT22;15917;50.014;8.352;2022-11-20T00:46:17;3.60;99.90
28761;DHT22;15917;50.014;8.352;2022-11-20T00:48:44;3.60;99.90
28761;DHT22;15917;50.014;8.352;2022-11-20T00:51:12;3.60;99.90
28761;DHT22;15917;50.014;8.352;2022-11-20T00:53:38;3.60;99.90
28761;DHT22;15917;50.014;8.352;2022-11-20T00:56:06;3.50;99.90
28761;DHT22;15917;50.014;8.352;2022-11-20T00:58:34;3.50;99.90
28761;DHT22;15917;50.014;8.352;2022-11-20T01:01:06;3.60;99.90
28761;DHT22;15917;50.014;8.352;2022-11-20T01:03:36;3.50;99.90
28761;DHT22;15917;50.014;8.352;2022-11-20T01:06:04;3.50;99.90
28761;DHT22;15917;50.014;8.352;2022-11-20T01:08:31;3.50;99.90
28761;DHT22;15917;50.014;8.352;2022-11-20T01:11:01;3.50;99.90
28761;DHT22;15917;50.014;8.352;2022-11-20T01:13:28;3.50;99.90
28761;DHT22;15917;50.014;8.352;2022-11-20T01:16:07;3.50;99.90
28761;DHT22;15917;50.014;8.352;2022-11-20T01:18:33;3.50;99.90
28761;DHT22;15917;50.014;8.352;2022-11-20T01:21:01;3.50;99.90
28761;DHT22;15917;50.014;8.352;2022-11-20T01:23:31;3.50;99.90
28761;DHT22;15917;50.014;8.352;2022-11-20T01:25:56;3.50;99.90
28761;DHT22;15917;50.014;8.352;2022-11-20T01:28:23;3.50;99.90
28761;DHT22;15917;50.014;8.352;2022-11-20T01:30:49;3.40;99.90
28761;DHT22;15917;50.014;8.352;2022-11-20T01:33:14;3.30;99.90
28761;DHT22;15917;50.014;8.352;2022-11-20T01:35:40;3.30;99.90
28761;DHT22;15917;50.014;8.352;2022-11-20T01:38:05;3.30;99.90
28761;DHT22;15917;50.014;8.352;2022-11-20T01:40:31;3.30;99.90
28761;DHT22;15917;50.014;8.352;2022-11-20T01:43:14;3.40;99.90
28761;DHT22;15917;50.014;8.352;2022-11-20T01:51:40;3.50;99.90
28761;DHT22;15917;50.014;8.352;2022-11-20T01:54:13;3.50;99.90
28761;DHT22;15917;50.014;8.352;2022-11-20T01:56:42;3.50;99.90
28761;DHT22;15917;50.014;8.352;2022-11-20T01:59:10;3.50;99.90
28761;DHT22;15917;50.014;8.352;2022-11-20T02:01:38;3.50;99.90
28761;DHT22;15917;50.014;8.352;2022-11-20T02:04:04;3.50;99.90
28761;DHT22;15917;50.014;8.352;2022-11-20T02:06:42;3.50;99.90
28761;DHT22;15917;50.014;8.352;2022-11-20T02:09:09;3.50;99.90
28761;DHT22;15917;50.014;8.352;2022-11-20T02:11:35;3.40;99.90
28761;DHT22;15917;50.014;8.352;2022-11-20T02:14:01;3.40;99.90
28761;DHT22;15917;50.014;8.352;2022-11-20T02:16:30;3.40;99.90
28761;DHT22;15917;50.014;8.352;2022-11-20T02:18:59;3.40;99.90
28761;DHT22;15917;50.014;8.352;2022-11-20T02:24:03;3.40;99.90
28761;DHT22;15917;50.014;8.352;2022-11-20T02:26:33;3.50;99.90
28761;DHT22;15917;50.014;8.352;2022-11-20T02:29:00;3.50;99.90
28761;DHT22;15917;50.014;8.352;2022-11-20T02:31:27;3.50;99.90
28761;DHT22;15917;50.014;8.352;2022-11-20T02:33:56;3.50;99.90
28761;DHT22;15917;50.014;8.352;2022-11-20T02:36:24;3.60;99.90
28761;DHT22;15917;50.014;8.352;2022-11-20T02:38:51;3.60;99.90
28761;DHT22;15917;50.014;8.352;2022-11-20T02:41:17;3.60;99.90
28761;DHT22;15917;50.014;8.352;2022-11-20T02:43:42;3.60;99.90
28761;DHT22;15917;50.014;8.352;2022-11-20T02:46:08;3.60;99.90
28761;DHT22;15917;50.014;8.352;2022-11-20T02:48:34;3.60;99.90
28761;DHT22;15917;50.014;8.352;2022-11-20T02:51:00;3.60;99.90
28761;DHT22;15917;50.014;8.352;2022-11-20T02:53:25;3.60;99.90
28761;DHT22;15917;50.014;8.352;2022-11-20T02:55:51;3.60;99.90
28761;DHT22;15917;50.014;8.352;2022-11-20T02:58:17;3.60;99.90
28761;DHT22;15917;50.014;8.352;2022-11-20T03:00:43;3.60;99.90
28761;DHT22;15917;50.014;8.352;2022-11-20T03:03:09;3.60;99.90
28761;DHT22;15917;50.014;8.352;2022-11-20T03:05:34;3.60;99.90
28761;DHT22;15917;50.014;8.352;2022-11-20T03:08:00;3.60;99.90
28761;DHT22;15917;50.014;8.352;2022-11-20T03:10:25;3.60;99.90
28761;DHT22;15917;50.014;8.352;2022-11-20T03:12:55;3.60;99.90
28761;DHT22;15917;50.014;8.352;2022-11-20T03:15:24;3.60;99.90
28761;DHT22;15917;50.014;8.352;2022-11-20T03:17:53;3.60;99.90
28761;DHT22;15917;50.014;8.352;2022-11-20T03:20:20;3.60;99.90
28761;DHT22;15917;50.014;8.352;2022-11-20T03:22:45;3.60;99.90
28761;DHT22;15917;50.014;8.352;2022-11-20T03:25:11;3.60;99.90
28761;DHT22;15917;50.014;8.352;2022-11-20T03:27:36;3.70;99.90
28761;DHT22;15917;50.014;8.352;2022-11-20T03:30:02;3.70;99.90
28761;DHT22;15917;50.014;8.352;2022-11-20T03:32:28;3.70;99.90
28761;DHT22;15917;50.014;8.352;2022-11-20T03:34:54;3.70;99.90
28761;DHT22;15917;50.014;8.352;2022-11-20T03:37:19;3.70;99.90
28761;DHT22;15917;50.014;8.352;2022-11-20T03:39:45;3.70;99.90
28761;DHT22;15917;50.014;8.352;2022-11-20T03:42:11;3.70;99.90
28761;DHT22;15917;50.014;8.352;2022-11-20T03:44:56;3.70;99.90
28761;DHT22;15917;50.014;8.352;2022-11-20T03:47:22;3.60;99.90
28761;DHT22;15917;50.014;8.352;2022-11-20T03:49:47;3.60;99.90
28761;DHT22;15917;50.014;8.352;2022-11-20T03:52:13;3.60;99.90
28761;DHT22;15917;50.014;8.352;2022-11-20T03:54:38;3.60;99.90
28761;DHT22;15917;50.014;8.352;2022-11-20T03:57:04;3.60;99.90
28761;DHT22;15917;50.014;8.352;2022-11-20T03:59:30;3.60;99.90
28761;DHT22;15917;50.014;8.352;2022-11-20T04:01:55;3.60;99.90
28761;DHT22;15917;50.014;8.352;2022-11-20T04:04:21;3.60;99.90
28761;DHT22;15917;50.014;8.352;2022-11-20T04:06:46;3.70;99.90
28761;DHT22;15917;50.014;8.352;2022-11-20T04:09:12;3.70;99.90
28761;DHT22;15917;50.014;8.352;2022-11-20T04:11:40;3.60;99.90
28761;DHT22;15917;50.014;8.352;2022-11-20T04:14:11;3.60;99.90
28761;DHT22;15917;50.014;8.352;2022-11-20T04:16:37;3.60;99.90
28761;DHT22;15917;50.014;8.352;2022-11-20T04:19:05;3.60;99.90
28761;DHT22;15917;50.014;8.352;2022-11-20T04:21:31;3.60;99.90
28761;DHT22;15917;50.014;8.352;2022-11-20T04:23:58;3.50;99.90
28761;DHT22;15917;50.014;8.352;2022-11-20T04:26:26;3.60;99.90
28761;DHT22;15917;50.014;8.352;2022-11-20T04:28:52;3.60;99.90
28761;DHT22;15917;50.014;8.352;2022-11-20T04:31:21;3.60;99.90
28761;DHT22;15917;50.014;8.352;2022-11-20T04:33:46;3.70;99.90
28761;DHT22;15917;50.014;8.352;2022-11-20T04:36:20;3.70;99.90
28761;DHT22;15917;50.014;8.352;2022-11-20T04:38:46;3.60;99.90
28761;DHT22;15917;50.014;8.352;2022-11-20T04:41:20;3.50;99.90
28761;DHT22;15917;50.014;8.352;2022-11-20T04:43:50;3.50;99.90
28761;DHT22;15917;50.014;8.352;2022-11-20T04:46:17;3.50;99.90
28761;DHT22;15917;50.014;8.352;2022-11-20T04:48:43;3.60;99.90
28761;DHT22;15917;50.014;8.352;2022-11-20T04:51:09;3.50;99.90
28761;DHT22;15917;50.014;8.352;2022-11-20T04:53:35;3.50;99.90
28761;DHT22;15917;50.014;8.352;2022-11-20T04:56:02;3.50;99.90
28761;DHT22;15917;50.014;8.352;2022-11-20T04:58:28;3.60;99.90
28761;DHT22;15917;50.014;8.352;2022-11-20T05:00:53;3.60;99.90
28761;DHT22;15917;50.014;8.352;2022-11-20T05:03:25;3.50;99.90
28761;DHT22;15917;50.014;8.352;2022-11-20T05:05:51;3.60;99.90
28761;DHT22;15917;50.014;8.352;2022-11-20T05:08:16;3.60;99.90
28761;DHT22;15917;50.014;8.352;2022-11-20T05:10:42;3.60;99.90
28761;DHT22;15917;50.014;8.352;2022-11-20T05:13:07;3.60;99.90
28761;DHT22;15917;50.014;8.352;2022-11-20T05:15:33;3.60;99.90
28761;DHT22;15917;50.014;8.352;2022-11-20T05:17:59;3.60;99.90
28761;DHT22;15917;50.014;8.352;2022-11-20T05:20:24;3.60;99.90
28761;DHT22;15917;50.014;8.352;2022-11-20T05:22:50;3.60;99.90
28761;DHT22;15917;50.014;8.352;2022-11-20T05:25:15;3.50;99.90
28761;DHT22;15917;50.014;8.352;2022-11-20T05:27:41;3.50;99.90
28761;DHT22;15917;50.014;8.352;2022-11-20T05:30:07;3.50;99.90
28761;DHT22;15917;50.014;8.352;2022-11-20T05:32:33;3.40;99.90
28761;DHT22;15917;50.014;8.352;2022-11-20T05:34:58;3.50;99.90
28761;DHT22;15917;50.014;8.352;2022-11-20T05:37:24;3.50;99.90
28761;DHT22;15917;50.014;8.352;2022-11-20T05:39:50;3.60;99.90
28761;DHT22;15917;50.014;8.352;2022-11-20T05:42:15;3.60;99.90
28761;DHT22;15917;50.014;8.352;2022-11-20T05:45:00;3.60;99.90
28761;DHT22;15917;50.014;8.352;2022-11-20T05:47:27;3.70;99.90
28761;DHT22;15917;50.014;8.352;2022-11-20T05:49:53;3.60;99.90
28761;DHT22;15917;50.014;8.352;2022-11-20T05:52:19;3.70;99.90
28761;DHT22;15917;50.014;8.352;2022-11-20T05:54:44;3.70;99.90
28761;DHT22;15917;50.014;8.352;2022-11-20T05:57:10;3.80;99.90
28761;DHT22;15917;50.014;8.352;2022-11-20T05:59:35;3.70;99.90
28761;DHT22;15917;50.014;8.352;2022-11-20T06:02:01;3.70;99.90
28761;DHT22;15917;50.014;8.352;2022-11-20T06:04:26;3.70;99.90
28761;DHT22;15917;50.014;8.352;2022-11-20T06:06:52;3.70;99.90
28761;DHT22;15917;50.014;8.352;2022-11-20T06:09:18;3.70;99.90
28761;DHT22;15917;50.014;8.352;2022-11-20T06:11:43;3.70;99.90
28761;DHT22;15917;50.014;8.352;2022-11-20T06:14:09;3.70;99.90
28761;DHT22;15917;50.014;8.352;2022-11-20T06:16:34;3.70;99.90
28761;DHT22;15917;50.014;8.352;2022-11-20T06:19:00;3.70;99.90
28761;DHT22;15917;50.014;8.352;2022-11-20T06:21:26;3.70;99.90
28761;DHT22;15917;50.014;8.352;2022-11-20T06:23:52;3.70;99.90
28761;DHT22;15917;50.014;8.352;2022-11-20T06:26:23;3.70;99.90
28761;DHT22;15917;50.014;8.352;2022-11-20T06:28:50;3.80;99.90
28761;DHT22;15917;50.014;8.352;2022-11-20T06:31:18;3.80;99.90
28761;DHT22;15917;50.014;8.352;2022-11-20T06:33:44;3.70;99.90
28761;DHT22;15917;50.014;8.352;2022-11-20T06:36:11;3.70;99.90
28761;DHT22;15917;50.014;8.352;2022-11-20T06:38:38;3.70;99.90
28761;DHT22;15917;50.014;8.352;2022-11-20T06:41:05;3.70;99.90
28761;DHT22;15917;50.014;8.352;2022-11-20T06:43:32;3.70;99.90
28761;DHT22;15917;50.014;8.352;2022-11-20T06:45:58;3.80;99.90
28761;DHT22;15917;50.014;8.352;2022-11-20T06:48:26;3.80;99.90
28761;DHT22;15917;50.014;8.352;2022-11-20T06:50:52;3.70;99.90
28761;DHT22;15917;50.014;8.352;2022-11-20T06:53:18;3.70;99.90
28761;DHT22;15917;50.014;8.352;2022-11-20T06:55:44;3.80;99.90
28761;DHT22;15917;50.014;8.352;2022-11-20T06:58:11;3.80;99.90
28761;DHT22;15917;50.014;8.352;2022-11-20T07:00:36;3.70;99.90
28761;DHT22;15917;50.014;8.352;2022-11-20T07:03:07;3.80;99.90
28761;DHT22;15917;50.014;8.352;2022-11-20T07:05:33;3.80;99.90
28761;DHT22;15917;50.014;8.352;2022-11-20T07:07:59;3.90;99.90
28761;DHT22;15917;50.014;8.352;2022-11-20T07:10:25;3.80;99.90
28761;DHT22;15917;50.014;8.352;2022-11-20T07:12:54;3.80;99.90
28761;DHT22;15917;50.014;8.352;2022-11-20T07:15:22;3.90;99.90
28761;DHT22;15917;50.014;8.352;2022-11-20T07:17:48;3.90;99.90
28761;DHT22;15917;50.014;8.352;2022-11-20T07:20:14;3.90;99.90
28761;DHT22;15917;50.014;8.352;2022-11-20T07:22:40;3.90;99.90
28761;DHT22;15917;50.014;8.352;2022-11-20T07:25:06;3.90;99.90
28761;DHT22;15917;50.014;8.352;2022-11-20T07:27:32;3.90;99.90
28761;DHT22;15917;50.014;8.352;2022-11-20T07:29:58;3.90;99.90
28761;DHT22;15917;50.014;8.352;2022-11-20T07:32:24;3.90;99.90
28761;DHT22;15917;50.014;8.352;2022-11-20T07:34:49;3.90;99.90
28761;DHT22;15917;50.014;8.352;2022-11-20T07:37:15;3.90;99.90
28761;DHT22;15917;50.014;8.352;2022-11-20T07:39:41;4.00;99.90
28761;DHT22;15917;50.014;8.352;2022-11-20T07:42:07;4.10;99.90
28761;DHT22;15917;50.014;8.352;2022-11-20T07:44:36;4.30;99.90
28761;DHT22;15917;50.014;8.352;2022-11-20T07:47:02;4.30;99.90
28761;DHT22;15917;50.014;8.352;2022-11-20T07:49:27;4.20;99.90
28761;DHT22;15917;50.014;8.352;2022-11-20T07:51:53;4.20;99.90
28761;DHT22;15917;50.014;8.352;2022-11-20T07:54:20;4.10;99.90
28761;DHT22;15917;50.014;8.352;2022-11-20T07:56:46;4.00;99.90
28761;DHT22;15917;50.014;8.352;2022-11-20T07:59:12;3.90;99.90
28761;DHT22;15917;50.014;8.352;2022-11-20T08:01:38;3.80;99.90
28761;DHT22;15917;50.014;8.352;2022-11-20T08:04:04;3.80;99.90
28761;DHT22;15917;50.014;8.352;2022-11-20T08:06:30;3.70;99.90
28761;DHT22;15917;50.014;8.352;2022-11-20T08:08:55;3.70;99.90
28761;DHT22;15917;50.014;8.352;2022-11-20T08:11:21;3.80;99.90
28761;DHT22;15917;50.014;8.352;2022-11-20T08:14:05;3.80;99.90
28761;DHT22;15917;50.014;8.352;2022-11-20T08:16:37;3.70;99.90
28761;DHT22;15917;50.014;8.352;2022-11-20T08:19:03;3.80;99.90
28761;DHT22;15917;50.014;8.352;2022-11-20T08:21:30;3.80;99.90
28761;DHT22;15917;50.014;8.352;2022-11-20T08:23:57;3.80;99.90
28761;DHT22;15917;50.014;8.352;2022-11-20T08:26:23;3.90;99.90
28761;DHT22;15917;50.014;8.352;2022-11-20T08:28:52;3.90;99.90
28761;DHT22;15917;50.014;8.352;2022-11-20T08:31:20;4.00;99.90
28761;DHT22;15917;50.014;8.352;2022-11-20T08:33:46;4.10;99.90
28761;DHT22;15917;50.014;8.352;2022-11-20T08:36:11;6.30;99.90
28761;DHT22;15917;50.014;8.352;2022-11-20T08:38:37;6.10;99.90
28761;DHT22;15917;50.014;8.352;2022-11-20T08:41:04;5.70;99.90
28761;DHT22;15917;50.014;8.352;2022-11-20T08:43:56;5.30;99.90
28761;DHT22;15917;50.014;8.352;2022-11-20T08:46:23;4.90;99.90
28761;DHT22;15917;50.014;8.352;2022-11-20T08:48:49;4.80;99.90
28761;DHT22;15917;50.014;8.352;2022-11-20T08:51:15;4.60;99.90
28761;DHT22;15917;50.014;8.352;2022-11-20T08:53:41;4.50;99.90
28761;DHT22;15917;50.014;8.352;2022-11-20T08:56:07;4.50;99.90
28761;DHT22;15917;50.014;8.352;2022-11-20T08:58:34;4.50;99.90
28761;DHT22;15917;50.014;8.352;2022-11-20T09:01:00;4.60;99.90
28761;DHT22;15917;50.014;8.352;2022-11-20T09:03:26;4.70;99.90
28761;DHT22;15917;50.014;8.352;2022-11-20T09:05:57;4.60;99.90
28761;DHT22;15917;50.014;8.352;2022-11-20T09:08:24;4.60;99.90
28761;DHT22;15917;50.014;8.352;2022-11-20T09:10:53;4.60;99.90
28761;DHT22;15917;50.014;8.352;2022-11-20T09:13:20;4.60;99.90
28761;DHT22;15917;50.014;8.352;2022-11-20T09:15:46;4.60;99.90
28761;DHT22;15917;50.014;8.352;2022-11-20T09:18:12;4.60;99.90
28761;DHT22;15917;50.014;8.352;2022-11-20T09:20:38;4.60;99.90
28761;DHT22;15917;50.014;8.352;2022-11-20T09:23:03;4.60;99.90
28761;DHT22;15917;50.014;8.352;2022-11-20T09:25:29;4.60;99.90
28761;DHT22;15917;50.014;8.352;2022-11-20T09:27:58;4.60;99.90
28761;DHT22;15917;50.014;8.352;2022-11-20T09:30:24;4.50;99.90
28761;DHT22;15917;50.014;8.352;2022-11-20T09:32:50;4.50;99.90
28761;DHT22;15917;50.014;8.352;2022-11-20T09:35:16;4.50;99.90
28761;DHT22;15917;50.014;8.352;2022-11-20T09:37:43;4.60;99.90
28761;DHT22;15917;50.014;8.352;2022-11-20T09:40:24;4.60;99.90
28761;DHT22;15917;50.014;8.352;2022-11-20T09:48:47;4.70;99.90
28761;DHT22;15917;50.014;8.352;2022-11-20T09:56:30;5.10;99.90
28761;DHT22;15917;50.014;8.352;2022-11-20T09:58:59;5.60;99.90
28761;DHT22;15917;50.014;8.352;2022-11-20T10:01:31;5.80;99.90
28761;DHT22;15917;50.014;8.352;2022-11-20T10:04:15;5.70;99.90
28761;DHT22;15917;50.014;8.352;2022-11-20T10:07:13;5.50;99.90
28761;DHT22;15917;50.014;8.352;2022-11-20T10:09:54;5.20;99.90
28761;DHT22;15917;50.014;8.352;2022-11-20T10:18:07;5.00;99.90
28761;DHT22;15917;50.014;8.352;2022-11-20T10:23:38;6.10;99.90
28761;DHT22;15917;50.014;8.352;2022-11-20T10:26:19;6.20;99.90
28761;DHT22;15917;50.014;8.352;2022-11-20T10:28:53;6.10;99.90
28761;DHT22;15917;50.014;8.352;2022-11-20T10:31:33;5.80;99.90
28761;DHT22;15917;50.014;8.352;2022-11-20T10:34:03;5.60;99.90
28761;DHT22;15917;50.014;8.352;2022-11-20T10:36:34;5.50;99.90
28761;DHT22;15917;50.014;8.352;2022-11-20T10:39:10;5.40;99.90
28761;DHT22;15917;50.014;8.352;2022-11-20T10:41:40;5.20;99.90
28761;DHT22;15917;50.014;8.352;2022-11-20T10:44:17;5.10;99.90
28761;DHT22;15917;50.014;8.352;2022-11-20T10:47:03;5.10;99.90
28761;DHT22;15917;50.014;8.352;2022-11-20T10:49:30;5.00;99.90
28761;DHT22;15917;50.014;8.352;2022-11-20T10:58:24;5.10;99.90
28761;DHT22;15917;50.014;8.352;2022-11-20T11:01:16;5.10;99.90
28761;DHT22;15917;50.014;8.352;2022-11-20T11:03:42;5.20;99.90
28761;DHT22;15917;50.014;8.352;2022-11-20T11:06:34;5.20;99.90
28761;DHT22;15917;50.014;8.352;2022-11-20T11:09:11;5.20;99.90
28761;DHT22;15917;50.014;8.352;2022-11-20T11:11:40;5.30;99.90
28761;DHT22;15917;50.014;8.352;2022-11-20T11:14:14;5.20;99.90
28761;DHT22;15917;50.014;8.352;2022-11-20T11:16:52;5.20;99.90
28761;DHT22;15917;50.014;8.352;2022-11-20T11:19:18;5.20;99.90
28761;DHT22;15917;50.014;8.352;2022-11-20T11:21:48;5.20;99.90
28761;DHT22;15917;50.014;8.352;2022-11-20T11:24:28;5.20;99.90
28761;DHT22;15917;50.014;8.352;2022-11-20T11:26:59;5.30;99.90
28761;DHT22;15917;50.014;8.352;2022-11-20T11:29:30;5.30;99.90
28761;DHT22;15917;50.014;8.352;2022-11-20T11:32:11;5.30;99.90
28761;DHT22;15917;50.014;8.352;2022-11-20T11:34:36;5.20;99.90
28761;DHT22;15917;50.014;8.352;2022-11-20T11:37:03;5.20;99.90
28761;DHT22;15917;50.014;8.352;2022-11-20T11:39:31;5.20;99.90
28761;DHT22;15917;50.014;8.352;2022-11-20T11:41:58;5.40;99.90
28761;DHT22;15917;50.014;8.352;2022-11-20T11:44:31;5.50;99.90
28761;DHT22;15917;50.014;8.352;2022-11-20T11:47:25;5.60;99.90
28761;DHT22;15917;50.014;8.352;2022-11-20T11:50:15;5.60;99.90
28761;DHT22;15917;50.014;8.352;2022-11-20T11:55:28;5.70;99.90
28761;DHT22;15917;50.014;8.352;2022-11-20T12:00:31;5.80;99.90
28761;DHT22;15917;50.014;8.352;2022-11-20T12:03:21;5.80;99.90
28761;DHT22;15917;50.014;8.352;2022-11-20T12:05:56;5.80;99.90
28761;DHT22;15917;50.014;8.352;2022-11-20T12:14:11;5.90;99.90
28761;DHT22;15917;50.014;8.352;2022-11-20T12:16:39;5.90;99.90
28761;DHT22;15917;50.014;8.352;2022-11-20T12:19:11;6.10;99.90
28761;DHT22;15917;50.014;8.352;2022-11-20T12:27:05;6.00;99.90
28761;DHT22;15917;50.014;8.352;2022-11-20T12:29:43;6.00;99.90
28761;DHT22;15917;50.014;8.352;2022-11-20T12:32:23;6.00;99.90
28761;DHT22;15917;50.014;8.352;2022-11-20T12:35:05;5.90;99.90
28761;DHT22;15917;50.014;8.352;2022-11-20T12:37:48;5.80;99.90
28761;DHT22;15917;50.014;8.352;2022-11-20T12:40:40;5.80;99.90
28761;DHT22;15917;50.014;8.352;2022-11-20T12:57:01;5.60;99.90
28761;DHT22;15917;50.014;8.352;2022-11-20T12:59:34;5.70;99.90
28761;DHT22;15917;50.014;8.352;2022-11-20T13:07:30;5.90;99.90
28761;DHT22;15917;50.014;8.352;2022-11-20T13:09:56;5.90;99.90
28761;DHT22;15917;50.014;8.352;2022-11-20T13:15:02;5.90;99.90
28761;DHT22;15917;50.014;8.352;2022-11-20T13:17:37;5.90;99.90
28761;DHT22;15917;50.014;8.352;2022-11-20T13:20:12;5.90;99.90
28761;DHT22;15917;50.014;8.352;2022-11-20T13:22:50;5.90;99.90
28761;DHT22;15917;50.014;8.352;2022-11-20T13:25:37;5.90;99.90
28761;DHT22;15917;50.014;8.352;2022-11-20T13:28:27;5.80;99.90
28761;DHT22;15917;50.014;8.352;2022-11-20T13:30:55;5.70;99.90
28761;DHT22;15917;50.014;8.352;2022-11-20T13:35:59;5.80;99.90
28761;DHT22;15917;50.014;8.352;2022-11-20T13:38:24;5.80;99.90
28761;DHT22;15917;50.014;8.352;2022-11-20T13:40:58;5.80;99.90
28761;DHT22;15917;50.014;8.352;2022-11-20T13:43:37;5.90;99.90
28761;DHT22;15917;50.014;8.352;2022-11-20T13:46:05;5.90;99.90
28761;DHT22;15917;50.014;8.352;2022-11-20T13:48:45;5.90;99.90
28761;DHT22;15917;50.014;8.352;2022-11-20T13:51:37;5.90;99.90
28761;DHT22;15917;50.014;8.352;2022-11-20T13:57:39;5.90;99.90
28761;DHT22;15917;50.014;8.352;2022-11-20T14:02:41;5.90;99.90
28761;DHT22;15917;50.014;8.352;2022-11-20T14:05:20;5.90;99.90
28761;DHT22;15917;50.014;8.352;2022-11-20T14:07:47;5.90;99.90
28761;DHT22;15917;50.014;8.352;2022-11-20T14:10:28;5.90;99.90
28761;DHT22;15917;50.014;8.352;2022-11-20T14:12:54;6.00;99.90
28761;DHT22;15917;50.014;8.352;2022-11-20T14:15:32;5.90;99.90
28761;DHT22;15917;50.014;8.352;2022-11-20T14:17:59;6.00;99.90
28761;DHT22;15917;50.014;8.352;2022-11-20T14:20:27;6.00;99.90
28761;DHT22;15917;50.014;8.352;2022-11-20T14:22:54;6.10;99.90
28761;DHT22;15917;50.014;8.352;2022-11-20T14:25:22;6.10;99.90
28761;DHT22;15917;50.014;8.352;2022-11-20T14:30:25;5.90;99.90
28761;DHT22;15917;50.014;8.352;2022-11-20T14:32:54;5.80;99.90
28761;DHT22;15917;50.014;8.352;2022-11-20T14:35:27;5.80;99.90
28761;DHT22;15917;50.014;8.352;2022-11-20T14:37:53;5.90;99.90
28761;DHT22;15917;50.014;8.352;2022-11-20T14:40:23;5.90;99.90
28761;DHT22;15917;50.014;8.352;2022-11-20T14:42:49;5.80;99.90
28761;DHT22;15917;50.014;8.352;2022-11-20T14:45:16;5.70;99.90
28761;DHT22;15917;50.014;8.352;2022-11-20T14:47:42;5.80;99.90
28761;DHT22;15917;50.014;8.352;2022-11-20T14:50:16;5.80;99.90
28761;DHT22;15917;50.014;8.352;2022-11-20T14:52:51;5.80;99.90
28761;DHT22;15917;50.014;8.352;2022-11-20T14:55:35;5.80;99.90
28761;DHT22;15917;50.014;8.352;2022-11-20T14:58:21;5.80;99.90
28761;DHT22;15917;50.014;8.352;2022-11-20T15:01:07;5.80;99.90
28761;DHT22;15917;50.014;8.352;2022-11-20T15:03:40;5.80;99.90
28761;DHT22;15917;50.014;8.352;2022-11-20T15:06:09;5.80;99.90
28761;DHT22;15917;50.014;8.352;2022-11-20T15:08:36;5.80;99.90
28761;DHT22;15917;50.014;8.352;2022-11-20T15:11:02;5.90;99.90
28761;DHT22;15917;50.014;8.352;2022-11-20T15:13:33;6.00;99.90
28761;DHT22;15917;50.014;8.352;2022-11-20T15:16:01;6.10;99.90
28761;DHT22;15917;50.014;8.352;2022-11-20T15:18:36;6.10;99.90
28761;DHT22;15917;50.014;8.352;2022-11-20T15:21:06;6.10;99.90
28761;DHT22;15917;50.014;8.352;2022-11-20T15:23:34;6.10;99.90
28761;DHT22;15917;50.014;8.352;2022-11-20T15:26:00;6.10;99.90
28761;DHT22;15917;50.014;8.352;2022-11-20T15:28:34;6.10;99.90
28761;DHT22;15917;50.014;8.352;2022-11-20T15:31:01;6.00;99.90
28761;DHT22;15917;50.014;8.352;2022-11-20T15:33:28;6.00;99.90
28761;DHT22;15917;50.014;8.352;2022-11-20T15:35:54;6.00;99.90
28761;DHT22;15917;50.014;8.352;2022-11-20T15:38:19;6.00;99.90
28761;DHT22;15917;50.014;8.352;2022-11-20T15:40:45;6.10;99.90
28761;DHT22;15917;50.014;8.352;2022-11-20T15:43:11;6.10;99.90
28761;DHT22;15917;50.014;8.352;2022-11-20T15:45:38;6.10;99.90
28761;DHT22;15917;50.014;8.352;2022-11-20T15:48:49;6.10;99.90
28761;DHT22;15917;50.014;8.352;2022-11-20T15:53:36;7.40;99.90
28761;DHT22;15917;50.014;8.352;2022-11-20T15:56:02;7.90;99.90
28761;DHT22;15917;50.014;8.352;2022-11-20T15:58:28;7.90;99.90
28761;DHT22;15917;50.014;8.352;2022-11-20T16:00:53;7.50;99.90
28761;DHT22;15917;50.014;8.352;2022-11-20T16:03:19;7.20;99.90
28761;DHT22;15917;50.014;8.352;2022-11-20T16:05:45;7.00;99.90
28761;DHT22;15917;50.014;8.352;2022-11-20T16:08:11;6.80;99.90
28761;DHT22;15917;50.014;8.352;2022-11-20T16:10:37;6.60;99.90
28761;DHT22;15917;50.014;8.352;2022-11-20T16:13:03;6.50;99.90
28761;DHT22;15917;50.014;8.352;2022-11-20T16:15:52;6.40;99.90
28761;DHT22;15917;50.014;8.352;2022-11-20T16:18:20;6.30;99.90
28761;DHT22;15917;50.014;8.352;2022-11-20T16:20:51;6.20;99.90
28761;DHT22;15917;50.014;8.352;2022-11-20T16:23:17;6.20;99.90
28761;DHT22;15917;50.014;8.352;2022-11-20T16:25:43;6.10;99.90
28761;DHT22;15917;50.014;8.352;2022-11-20T16:28:10;6.10;99.90
28761;DHT22;15917;50.014;8.352;2022-11-20T16:30:37;6.10;99.90
28761;DHT22;15917;50.014;8.352;2022-11-20T16:33:03;6.00;99.90
28761;DHT22;15917;50.014;8.352;2022-11-20T16:35:30;6.00;99.90
28761;DHT22;15917;50.014;8.352;2022-11-20T16:37:57;6.00;99.90
28761;DHT22;15917;50.014;8.352;2022-11-20T16:40:24;6.10;99.90
28761;DHT22;15917;50.014;8.352;2022-11-20T16:42:50;6.00;99.90
28761;DHT22;15917;50.014;8.352;2022-11-20T16:45:16;6.10;99.90
28761;DHT22;15917;50.014;8.352;2022-11-20T16:47:42;6.10;99.90
28761;DHT22;15917;50.014;8.352;2022-11-20T16:50:08;6.00;99.90
28761;DHT22;15917;50.014;8.352;2022-11-20T16:52:34;6.00;99.90
28761;DHT22;15917;50.014;8.352;2022-11-20T16:55:00;6.00;99.90
28761;DHT22;15917;50.014;8.352;2022-11-20T16:57:30;6.00;99.90
28761;DHT22;15917;50.014;8.352;2022-11-20T17:00:00;6.10;99.90
28761;DHT22;15917;50.014;8.352;2022-11-20T17:02:27;6.10;99.90
28761;DHT22;15917;50.014;8.352;2022-11-20T17:04:52;6.00;99.90
28761;DHT22;15917;50.014;8.352;2022-11-20T17:07:18;6.10;99.90
28761;DHT22;15917;50.014;8.352;2022-11-20T17:09:44;6.10;99.90
28761;DHT22;15917;50.014;8.352;2022-11-20T17:12:09;6.10;99.90
28761;DHT22;15917;50.014;8.352;2022-11-20T17:14:35;6.10;99.90
28761;DHT22;15917;50.014;8.352;2022-11-20T17:17:01;6.20;99.90
28761;DHT22;15917;50.014;8.352;2022-11-20T17:19:26;6.20;99.90
28761;DHT22;15917;50.014;8.352;2022-11-20T17:21:52;6.20;99.90
28761;DHT22;15917;50.014;8.352;2022-11-20T17:24:18;6.20;99.90